createdAt,value
2022-11-23T02:48:46.802Z,7.07
2022-11-23T02:49:48.336Z,7.03
2022-11-23T02:50:48.297Z,7.03
2022-11-23T02:51:47.829Z,7.03
2022-11-23T02:52:47.791Z,7.17
2022-11-23T02:53:48.104Z,7.03
2022-11-23T02:54:51.005Z,7.13
2022-11-23T02:55:47.771Z,7.06
2022-11-23T02:56:49.227Z,7.05
2022-11-23T02:57:49.730Z,7.13
2022-11-23T02:58:47.612Z,7.14
2022-11-23T02:59:48.997Z,7.03
2022-11-23T03:00:50.393Z,7.07
2022-11-23T03:03:13.518Z,7.10
2022-11-23T03:03:15.189Z,7.11
2022-11-23T03:04:15.168Z,7.02
2022-11-23T03:05:15.259Z,7.03
2022-11-23T03:06:15.530Z,7.06
2022-11-23T03:07:16.245Z,7.13
2022-11-23T03:08:17.809Z,7.07
2022-11-23T03:09:16.739Z,7.10
2022-11-23T03:10:15.075Z,7.03
2022-11-23T03:11:15.243Z,7.11
2022-11-23T03:13:38.991Z,7.13
2022-11-23T03:13:40.755Z,7.03
2022-11-23T03:14:40.732Z,7.02
2022-11-23T03:15:40.734Z,7.06
2022-11-23T03:16:40.557Z,7.02
2022-11-23T03:17:40.548Z,7.05
2022-11-23T03:18:40.511Z,6.95
2022-11-23T03:19:40.624Z,7.00
2022-11-23T03:20:40.788Z,6.95
2022-11-23T03:21:40.506Z,6.95
2022-11-23T03:22:40.708Z,6.93
2022-11-23T03:23:40.553Z,6.89
2022-11-23T03:24:41.300Z,6.89
2022-11-23T03:25:43.709Z,6.89
2022-11-23T03:26:41.494Z,6.92
2022-11-23T03:27:40.971Z,6.96
2022-11-23T03:28:40.566Z,6.95
2022-11-23T03:29:40.519Z,6.96
2022-11-23T03:30:40.474Z,6.95
2022-11-23T03:31:40.731Z,6.99
2022-11-23T03:32:41.395Z,6.89
2022-11-23T03:33:40.532Z,6.88
2022-11-23T03:34:40.444Z,7.03
2022-11-23T03:35:40.382Z,6.95
2022-11-23T03:36:40.419Z,6.89
2022-11-23T03:37:40.403Z,6.95
2022-11-23T03:38:40.607Z,7.05
2022-11-23T03:39:45.782Z,6.95
2022-11-23T03:40:46.504Z,6.89
2022-11-23T03:41:40.495Z,7.10
2022-11-23T03:42:40.329Z,6.95
2022-11-23T03:43:40.414Z,6.92
2022-11-23T03:44:40.674Z,7.06
2022-11-23T03:45:42.208Z,7.02
2022-11-23T03:46:40.329Z,7.07
2022-11-23T03:47:40.275Z,7.14
2022-11-23T03:48:40.436Z,7.00
2022-11-23T03:49:40.348Z,7.02
2022-11-23T03:50:41.189Z,6.93
2022-11-23T03:52:12.648Z,6.99
2022-11-23T03:52:40.355Z,6.95
2022-11-23T03:53:40.159Z,7.03
2022-11-23T03:54:40.161Z,6.92
2022-11-23T03:55:40.131Z,7.07
2022-11-23T03:56:40.129Z,6.99
2022-11-23T03:57:40.140Z,6.99
2022-11-23T03:58:40.128Z,7.02
2022-11-23T03:59:40.322Z,7.03
2022-11-23T04:00:40.157Z,6.93
2022-11-23T04:01:40.097Z,7.03
2022-11-23T04:02:40.021Z,6.93
2022-11-23T04:03:40.033Z,6.95
2022-11-23T04:04:40.051Z,6.92
2022-11-23T04:05:40.042Z,6.99
2022-11-23T04:06:40.059Z,6.97
2022-11-23T04:07:40.156Z,6.95
2022-11-23T04:08:40.003Z,6.96
2022-11-23T04:09:39.987Z,6.93
2022-11-23T04:10:39.980Z,7.00
2022-11-23T04:11:39.936Z,6.95
2022-11-23T04:12:39.947Z,6.97
2022-11-23T04:13:39.955Z,6.93
2022-11-23T04:14:39.937Z,6.95
2022-11-23T04:15:39.882Z,6.95
2022-11-23T04:16:39.916Z,6.88
2022-11-23T04:17:39.921Z,6.95
2022-11-23T04:18:39.870Z,6.97
2022-11-23T04:19:39.875Z,6.89
2022-11-23T04:20:39.871Z,6.89
2022-11-23T04:21:39.856Z,6.95
2022-11-23T04:22:39.845Z,6.93
2022-11-23T04:23:39.877Z,6.99
2022-11-23T04:24:39.906Z,6.95
2022-11-23T04:25:39.786Z,6.92
2022-11-23T04:26:39.878Z,6.82
2022-11-23T04:27:39.791Z,6.93
2022-11-23T04:28:39.816Z,6.93
2022-11-23T04:29:39.763Z,6.93
2022-11-23T04:30:39.759Z,6.99
2022-11-23T04:31:39.769Z,7.00
2022-11-23T04:32:39.748Z,6.93
2022-11-23T04:33:39.738Z,6.93
2022-11-23T04:34:39.745Z,6.79
2022-11-23T04:35:39.724Z,6.87
2022-11-23T04:36:39.699Z,6.88
2022-11-23T04:37:39.716Z,6.77
2022-11-23T04:38:39.704Z,6.85
2022-11-23T04:39:39.689Z,6.84
2022-11-23T04:40:39.633Z,6.79
2022-11-23T04:41:39.643Z,6.82
2022-11-23T04:42:39.629Z,6.95
2022-11-23T04:43:39.639Z,6.85
2022-11-23T04:44:39.611Z,6.92
2022-11-23T04:45:39.616Z,6.81
2022-11-23T04:46:39.606Z,6.82
2022-11-23T04:47:39.569Z,6.79
2022-11-23T04:48:39.599Z,6.92
2022-11-23T04:49:39.583Z,6.87
2022-11-23T04:50:40.780Z,6.82
2022-11-23T04:51:40.578Z,6.79
2022-11-23T04:52:39.518Z,6.84
2022-11-23T04:53:39.528Z,6.89
2022-11-23T04:54:39.522Z,6.88
2022-11-23T04:55:39.577Z,6.95
2022-11-23T04:56:39.534Z,6.93
2022-11-23T04:57:39.464Z,6.93
2022-11-23T04:58:39.523Z,6.82
2022-11-23T04:59:39.514Z,6.84
2022-11-23T05:00:39.459Z,6.82
2022-11-23T05:01:39.507Z,6.89
2022-11-23T05:02:39.445Z,6.74
2022-11-23T05:03:39.459Z,6.84
2022-11-23T05:04:39.412Z,6.75
2022-11-23T05:05:39.399Z,6.81
2022-11-23T05:06:39.423Z,6.79
2022-11-23T05:07:39.455Z,6.79
2022-11-23T05:08:39.428Z,6.79
2022-11-23T05:09:39.371Z,6.87
2022-11-23T05:10:39.367Z,6.77
2022-11-23T05:11:39.337Z,6.81
2022-11-23T05:12:39.350Z,6.77
2022-11-23T05:13:39.364Z,6.85
2022-11-23T05:14:39.294Z,6.78
2022-11-23T05:15:39.332Z,6.81
2022-11-23T05:16:39.303Z,6.79
2022-11-23T05:17:39.276Z,6.89
2022-11-23T05:18:39.308Z,6.82
2022-11-23T05:19:39.288Z,6.78
2022-11-23T05:20:39.280Z,6.75
2022-11-23T05:21:39.248Z,6.85
2022-11-23T05:22:39.274Z,6.74
2022-11-23T05:23:39.272Z,6.82
2022-11-23T05:24:39.237Z,6.89
2022-11-23T05:25:39.262Z,6.85
2022-11-23T05:26:39.175Z,6.82
2022-11-23T05:27:39.259Z,6.81
2022-11-23T05:28:40.963Z,6.82
2022-11-23T05:29:40.215Z,6.77
2022-11-23T05:30:39.233Z,6.75
2022-11-23T05:31:39.160Z,6.79
2022-11-23T05:32:39.151Z,6.78
2022-11-23T05:33:39.216Z,6.78
2022-11-23T05:34:39.130Z,6.72
2022-11-23T05:35:39.121Z,6.70
2022-11-23T05:36:42.266Z,6.78
2022-11-23T05:37:40.091Z,6.74
2022-11-23T05:38:39.139Z,6.74
2022-11-23T05:39:39.081Z,6.75
2022-11-23T05:40:39.066Z,6.70
2022-11-23T05:41:39.062Z,6.77
2022-11-23T05:42:39.030Z,6.69
2022-11-23T05:43:39.103Z,6.67
2022-11-23T05:44:39.064Z,6.74
2022-11-23T05:45:39.010Z,6.81
2022-11-23T05:46:38.992Z,6.82
2022-11-23T05:47:38.999Z,6.77
2022-11-23T05:48:39.062Z,6.81
2022-11-23T05:49:38.987Z,6.78
2022-11-23T05:50:39.019Z,6.82
2022-11-23T05:51:38.958Z,6.82
2022-11-23T05:52:38.935Z,6.78
2022-11-23T05:53:38.997Z,6.79
2022-11-23T05:54:38.919Z,6.77
2022-11-23T05:55:38.931Z,6.78
2022-11-23T05:56:40.405Z,6.72
2022-11-23T05:57:39.897Z,6.64
2022-11-23T05:58:38.929Z,6.67
2022-11-23T05:59:38.872Z,6.64
2022-11-23T06:00:57.738Z,6.67
2022-11-23T06:01:38.845Z,6.67
2022-11-23T06:02:41.301Z,6.77
2022-11-23T06:03:39.936Z,6.75
2022-11-23T06:04:38.827Z,6.75
2022-11-23T06:05:38.819Z,6.87
2022-11-23T06:06:38.803Z,6.77
2022-11-23T06:07:38.873Z,6.87
2022-11-23T06:08:38.836Z,6.79
2022-11-23T06:09:38.786Z,6.87
2022-11-23T06:10:38.761Z,6.89
2022-11-23T06:11:38.759Z,6.89
2022-11-23T06:12:38.775Z,6.95
2022-11-23T06:13:38.768Z,6.97
2022-11-23T06:14:38.726Z,6.82
2022-11-23T06:15:38.686Z,6.97
2022-11-23T06:16:38.707Z,7.02
2022-11-23T06:17:38.696Z,6.93
2022-11-23T06:18:38.716Z,6.89
2022-11-23T06:19:38.644Z,6.92
2022-11-23T06:20:38.691Z,6.79
2022-11-23T06:21:38.648Z,6.88
2022-11-23T06:22:38.635Z,6.99
2022-11-23T06:23:39.357Z,6.96
2022-11-23T06:24:38.642Z,6.88
2022-11-23T06:25:38.608Z,6.87
2022-11-23T06:26:38.617Z,6.81
2022-11-23T06:27:38.642Z,6.84
2022-11-23T06:28:38.615Z,6.92
2022-11-23T06:29:38.567Z,6.92
2022-11-23T06:30:38.585Z,6.82
2022-11-23T06:31:38.589Z,6.92
2022-11-23T06:32:38.593Z,6.92
2022-11-23T06:33:38.626Z,6.95
2022-11-23T06:34:38.564Z,6.92
2022-11-23T06:35:38.540Z,6.99
2022-11-23T06:36:38.575Z,7.02
2022-11-23T06:37:38.547Z,6.97
2022-11-23T06:38:38.576Z,6.96
2022-11-23T06:39:38.481Z,6.96
2022-11-23T06:40:38.470Z,6.96
2022-11-23T06:41:38.508Z,6.95
2022-11-23T06:42:39.969Z,7.02
2022-11-23T06:43:39.429Z,6.93
2022-11-23T06:44:38.424Z,7.07
2022-11-23T06:45:38.452Z,7.05
2022-11-23T06:46:38.392Z,7.03
2022-11-23T06:47:38.401Z,7.00
2022-11-23T06:48:38.416Z,7.05
2022-11-23T06:49:38.424Z,7.11
2022-11-23T06:50:38.369Z,7.02
2022-11-23T06:51:38.325Z,6.99
2022-11-23T06:52:38.328Z,6.87
2022-11-23T06:53:38.337Z,6.95
2022-11-23T06:54:38.369Z,6.99
2022-11-23T06:55:38.313Z,7.02
2022-11-23T06:56:38.305Z,6.96
2022-11-23T06:57:38.369Z,7.14
2022-11-23T06:58:38.283Z,7.07
2022-11-23T06:59:43.187Z,7.10
2022-11-23T07:00:40.271Z,7.02
2022-11-23T07:01:38.271Z,7.11
2022-11-23T07:02:38.240Z,7.13
2022-11-23T07:03:38.662Z,7.14
2022-11-23T07:04:38.236Z,7.06
2022-11-23T07:05:38.213Z,7.05
2022-11-23T07:06:38.188Z,7.10
2022-11-23T07:07:38.183Z,7.03
2022-11-23T07:08:38.198Z,7.00
2022-11-23T07:09:38.189Z,7.06
2022-11-23T07:10:38.155Z,7.07
2022-11-23T07:11:38.158Z,7.07
2022-11-23T07:12:38.127Z,7.03
2022-11-23T07:13:38.132Z,6.96
2022-11-23T07:14:38.146Z,7.10
2022-11-23T07:15:38.107Z,7.06
2022-11-23T07:16:38.106Z,7.02
2022-11-23T07:17:38.109Z,7.07
2022-11-23T07:18:38.094Z,6.97
2022-11-23T07:19:38.129Z,6.96
2022-11-23T07:20:38.082Z,6.97
2022-11-23T07:21:38.032Z,7.02
2022-11-23T07:22:38.049Z,6.96
2022-11-23T07:23:38.023Z,6.99
2022-11-23T07:24:41.470Z,7.03
2022-11-23T07:25:40.011Z,7.07
2022-11-23T07:26:38.085Z,7.00
2022-11-23T07:27:38.035Z,7.07
2022-11-23T07:28:37.993Z,7.05
2022-11-23T07:29:38.251Z,7.11
2022-11-23T07:30:38.038Z,7.03
2022-11-23T07:31:37.987Z,6.99
2022-11-23T07:32:37.964Z,7.10
2022-11-23T07:33:37.931Z,7.13
2022-11-23T07:34:37.918Z,7.06
2022-11-23T07:35:38.968Z,7.15
2022-11-23T07:36:37.892Z,7.13
2022-11-23T07:37:37.897Z,7.14
2022-11-23T07:38:37.853Z,7.15
2022-11-23T07:39:56.227Z,7.13
2022-11-23T07:40:39.902Z,7.11
2022-11-23T07:41:37.879Z,7.06
2022-11-23T07:42:44.457Z,7.15
2022-11-23T07:43:39.856Z,7.18
2022-11-23T07:44:37.857Z,7.10
2022-11-23T07:45:37.836Z,7.24
2022-11-23T07:46:37.810Z,7.23
2022-11-23T07:47:37.784Z,7.21
2022-11-23T07:48:37.756Z,7.10
2022-11-23T07:49:37.755Z,7.15
2022-11-23T07:50:38.523Z,7.28
2022-11-23T07:51:37.807Z,7.20
2022-11-23T07:52:37.733Z,7.23
2022-11-23T07:53:37.762Z,7.32
2022-11-23T07:54:37.782Z,7.32
2022-11-23T07:55:37.675Z,7.29
2022-11-23T07:56:37.686Z,7.25
2022-11-23T07:57:37.692Z,7.31
2022-11-23T07:58:37.711Z,7.31
2022-11-23T07:59:37.675Z,7.35
2022-11-23T08:00:37.704Z,7.33
2022-11-23T08:01:37.657Z,7.36
2022-11-23T08:02:37.724Z,7.24
2022-11-23T08:03:37.704Z,7.24
2022-11-23T08:04:37.654Z,7.35
2022-11-23T08:05:37.599Z,7.25
2022-11-23T08:06:37.612Z,7.33
2022-11-23T08:07:37.739Z,7.31
2022-11-23T08:08:37.615Z,7.39
2022-11-23T08:09:37.642Z,7.45
2022-11-23T08:10:42.022Z,7.42
2022-11-23T08:11:39.546Z,7.29
2022-11-23T08:12:37.571Z,7.31
2022-11-23T08:13:37.559Z,7.36
2022-11-23T08:14:37.550Z,7.42
2022-11-23T08:15:37.584Z,7.36
2022-11-23T08:16:37.545Z,7.36
2022-11-23T08:17:37.478Z,7.40
2022-11-23T08:18:37.519Z,7.45
2022-11-23T08:19:37.492Z,7.40
2022-11-23T08:20:37.456Z,7.45
2022-11-23T08:21:37.436Z,7.45
2022-11-23T08:22:37.449Z,7.42
2022-11-23T08:23:37.454Z,7.50
2022-11-23T08:24:37.470Z,7.50
2022-11-23T08:25:37.542Z,7.42
2022-11-23T08:26:37.447Z,7.38
2022-11-23T08:27:37.367Z,7.48
2022-11-23T08:28:37.422Z,7.50
2022-11-23T08:29:37.408Z,7.50
2022-11-23T08:30:37.427Z,7.50
2022-11-23T08:31:37.381Z,7.60
2022-11-23T08:32:37.348Z,7.67
2022-11-23T08:33:37.326Z,7.66
2022-11-23T08:34:37.333Z,7.58
2022-11-23T08:35:37.288Z,7.60
2022-11-23T08:36:37.357Z,7.57
2022-11-23T08:37:37.285Z,7.61
2022-11-23T08:38:37.285Z,7.51
2022-11-23T08:39:37.294Z,7.70
2022-11-23T08:40:37.267Z,7.75
2022-11-23T08:41:37.260Z,7.69
2022-11-23T08:42:37.227Z,7.69
2022-11-23T08:43:37.238Z,7.76
2022-11-23T08:44:37.226Z,7.66
2022-11-23T08:45:37.199Z,7.58
2022-11-23T08:46:37.244Z,7.76
2022-11-23T08:47:37.199Z,7.58
2022-11-23T08:48:37.189Z,7.61
2022-11-23T08:49:37.161Z,7.69
2022-11-23T08:50:37.211Z,7.73
2022-11-23T08:51:37.149Z,7.75
2022-11-23T08:52:37.137Z,7.75
2022-11-23T08:53:37.128Z,7.80
2022-11-23T08:54:37.133Z,7.77
2022-11-23T08:55:37.110Z,7.79
2022-11-23T08:56:37.114Z,7.75
2022-11-23T08:57:37.072Z,7.85
2022-11-23T08:58:37.096Z,7.98
2022-11-23T08:59:37.106Z,7.85
2022-11-23T09:00:37.083Z,7.82
2022-11-23T09:01:37.115Z,7.85
2022-11-23T09:02:37.062Z,7.85
2022-11-23T09:03:37.031Z,7.87
2022-11-23T09:04:37.949Z,7.83
2022-11-23T09:05:37.026Z,7.87
2022-11-23T09:06:36.990Z,7.95
2022-11-23T09:07:37.019Z,7.94
2022-11-23T09:08:36.983Z,7.94
2022-11-23T09:09:36.992Z,7.95
2022-11-23T09:10:36.949Z,7.90
2022-11-23T09:11:36.994Z,7.85
2022-11-23T09:12:36.949Z,7.91
2022-11-23T09:13:37.035Z,7.85
2022-11-23T09:14:36.990Z,7.95
2022-11-23T09:15:36.927Z,7.88
2022-11-23T09:16:36.940Z,7.87
2022-11-23T09:17:36.905Z,7.95
2022-11-23T09:18:36.848Z,8.00
2022-11-23T09:19:36.964Z,7.97
2022-11-23T09:20:36.881Z,8.03
2022-11-23T09:21:36.817Z,8.01
2022-11-23T09:22:36.902Z,7.93
2022-11-23T09:23:36.816Z,8.06
2022-11-23T09:24:37.423Z,8.06
2022-11-23T09:25:36.842Z,8.10
2022-11-23T09:26:36.806Z,8.10
2022-11-23T09:27:36.832Z,8.01
2022-11-23T09:28:41.592Z,8.00
2022-11-23T09:29:38.828Z,7.94
2022-11-23T09:30:36.789Z,7.95
2022-11-23T09:31:36.751Z,7.94
2022-11-23T09:32:36.713Z,7.98
2022-11-23T09:33:36.741Z,7.94
2022-11-23T09:34:36.778Z,8.01
2022-11-23T09:35:42.359Z,7.98
2022-11-23T09:36:38.755Z,7.95
2022-11-23T09:37:36.683Z,8.01
2022-11-23T09:38:56.556Z,7.97
2022-11-23T09:39:38.718Z,8.06
2022-11-23T09:40:36.666Z,8.01
2022-11-23T09:41:36.684Z,7.98
2022-11-23T09:42:36.605Z,7.97
2022-11-23T09:43:36.659Z,8.06
2022-11-23T09:44:36.625Z,8.10
2022-11-23T09:45:36.590Z,8.01
2022-11-23T09:46:37.251Z,8.06
2022-11-23T09:47:37.554Z,8.00
2022-11-23T09:48:36.567Z,8.09
2022-11-23T09:49:36.605Z,8.08
2022-11-23T09:50:36.604Z,8.05
2022-11-23T09:51:36.545Z,8.06
2022-11-23T09:52:36.634Z,8.15
2022-11-23T09:53:36.525Z,8.12
2022-11-23T09:54:36.591Z,8.06
2022-11-23T09:55:36.581Z,8.12
2022-11-23T09:56:36.512Z,8.13
2022-11-23T09:57:36.534Z,8.19
2022-11-23T09:58:36.477Z,8.23
2022-11-23T09:59:36.507Z,8.12
2022-11-23T10:00:36.486Z,8.16
2022-11-23T10:01:36.548Z,8.16
2022-11-23T10:03:08.917Z,8.10
2022-11-23T10:03:36.529Z,8.26
2022-11-23T10:04:36.473Z,8.27
2022-11-23T10:05:36.466Z,8.46
2022-11-23T10:06:36.451Z,8.37
2022-11-23T10:07:36.485Z,8.38
2022-11-23T10:08:36.501Z,8.33
2022-11-23T10:09:36.449Z,8.33
2022-11-23T10:10:36.471Z,8.49
2022-11-23T10:11:36.452Z,8.48
2022-11-23T10:12:39.881Z,8.45
2022-11-23T10:13:37.393Z,8.41
2022-11-23T10:14:36.362Z,8.49
2022-11-23T10:15:36.349Z,8.51
2022-11-23T10:16:36.403Z,8.55
2022-11-23T10:17:36.343Z,8.46
2022-11-23T10:18:36.319Z,8.55
2022-11-23T10:19:36.300Z,8.44
2022-11-23T10:20:36.305Z,8.48
2022-11-23T10:21:36.456Z,8.55
2022-11-23T10:22:36.356Z,8.55
2022-11-23T10:23:36.289Z,8.49
2022-11-23T10:24:36.277Z,8.60
2022-11-23T10:25:39.316Z,8.66
2022-11-23T10:26:37.270Z,8.64
2022-11-23T10:27:36.282Z,8.67
2022-11-23T10:28:36.327Z,8.63
2022-11-23T10:29:36.242Z,8.63
2022-11-23T10:30:36.278Z,8.71
2022-11-23T10:31:36.280Z,8.81
2022-11-23T10:32:36.206Z,8.73
2022-11-23T10:33:36.236Z,8.69
2022-11-23T10:34:36.326Z,8.64
2022-11-23T10:35:36.196Z,8.81
2022-11-23T10:36:36.442Z,8.73
2022-11-23T10:37:36.169Z,8.82
2022-11-23T10:38:36.156Z,8.70
2022-11-23T10:39:36.273Z,8.78
2022-11-23T10:40:36.220Z,8.78
2022-11-23T10:41:36.173Z,8.70
2022-11-23T10:42:36.162Z,8.85
2022-11-23T10:43:36.152Z,8.76
2022-11-23T10:44:36.184Z,8.81
2022-11-23T10:45:36.120Z,8.74
2022-11-23T10:46:36.200Z,8.79
2022-11-23T10:47:36.050Z,8.78
2022-11-23T10:48:36.051Z,8.76
2022-11-23T10:49:36.010Z,8.78
2022-11-23T10:50:36.160Z,8.76
2022-11-23T10:51:36.006Z,8.85
2022-11-23T10:52:36.027Z,8.79
2022-11-23T10:53:35.984Z,8.85
2022-11-23T10:54:36.415Z,8.81
2022-11-23T10:55:35.984Z,8.79
2022-11-23T10:56:35.932Z,8.76
2022-11-23T10:57:35.929Z,8.81
2022-11-23T10:58:35.911Z,8.84
2022-11-23T10:59:35.962Z,8.79
2022-11-23T11:00:35.939Z,8.76
2022-11-23T11:01:36.153Z,8.76
2022-11-23T11:02:35.970Z,8.81
2022-11-23T11:03:35.918Z,8.73
2022-11-23T11:04:35.959Z,8.67
2022-11-23T11:06:37.831Z,8.71
2022-11-23T11:07:36.000Z,8.73
2022-11-23T11:08:35.835Z,8.85
2022-11-23T11:09:36.823Z,8.82
2022-11-23T11:10:35.824Z,8.92
2022-11-23T11:11:35.827Z,8.84
2022-11-23T11:12:35.798Z,8.89
2022-11-23T11:13:36.584Z,8.92
2022-11-23T11:14:42.950Z,8.81
2022-11-23T11:15:47.257Z,8.92
2022-11-23T11:16:36.839Z,8.88
2022-11-23T11:17:35.783Z,8.92
2022-11-23T11:18:35.833Z,8.94
2022-11-23T11:19:35.919Z,9.13
2022-11-23T11:20:35.790Z,9.21
2022-11-23T11:21:35.760Z,9.44
2022-11-23T11:22:35.827Z,9.73
2022-11-23T11:23:35.855Z,10.15
2022-11-23T11:24:36.046Z,9.86
2022-11-23T11:25:35.661Z,9.66
2022-11-23T11:26:35.632Z,9.61
2022-11-23T11:27:35.714Z,9.39
2022-11-23T11:28:35.672Z,9.29
2022-11-23T11:29:39.204Z,9.11
2022-11-23T11:30:36.694Z,9.11
2022-11-23T11:31:36.081Z,9.08
2022-11-23T11:32:35.790Z,9.02
2022-11-23T11:33:36.613Z,9.06
2022-11-23T11:34:36.565Z,8.95
2022-11-23T11:35:35.728Z,9.02
2022-11-23T11:36:35.782Z,9.00
2022-11-23T11:37:35.907Z,9.13
2022-11-23T11:38:35.979Z,9.37
2022-11-23T11:39:35.539Z,10.04
2022-11-23T11:40:35.601Z,9.91
2022-11-23T11:41:35.903Z,9.89
2022-11-23T11:42:35.522Z,9.72
2022-11-23T11:43:40.077Z,9.55
2022-11-23T11:44:36.506Z,9.48
2022-11-23T11:45:36.815Z,9.40
2022-11-23T11:46:35.840Z,9.28
2022-11-23T11:47:35.542Z,9.56
2022-11-23T11:48:35.448Z,10.26
2022-11-23T11:49:35.477Z,10.12
2022-11-23T11:50:35.453Z,9.86
2022-11-23T11:51:35.479Z,9.68
2022-11-23T11:52:35.516Z,9.54
2022-11-23T11:53:35.407Z,9.44
2022-11-23T11:54:35.718Z,9.58
2022-11-23T11:55:36.260Z,9.54
2022-11-23T11:56:35.368Z,9.62
2022-11-23T11:57:35.581Z,9.62
2022-11-23T11:58:38.917Z,9.54
2022-11-23T11:59:37.399Z,9.69
2022-11-23T12:00:35.396Z,9.47
2022-11-23T12:01:35.327Z,9.41
2022-11-23T12:02:35.395Z,9.29
2022-11-23T12:03:35.445Z,9.40
2022-11-23T12:04:35.648Z,9.26
2022-11-23T12:05:35.434Z,9.16
2022-11-23T12:06:35.272Z,9.22
2022-11-23T12:07:35.354Z,9.44
2022-11-23T12:08:35.245Z,9.77
2022-11-23T12:09:35.487Z,9.92
2022-11-23T12:10:35.318Z,9.87
2022-11-23T12:11:35.228Z,9.72
2022-11-23T12:12:35.181Z,9.64
2022-11-23T12:13:35.209Z,9.72
2022-11-23T12:14:35.429Z,9.73
2022-11-23T12:15:49.314Z,9.92
2022-11-23T12:16:37.226Z,10.02
2022-11-23T12:17:35.267Z,9.83
2022-11-23T12:18:35.179Z,9.77
2022-11-23T12:19:35.356Z,9.64
2022-11-23T12:20:35.235Z,9.66
2022-11-23T12:21:35.484Z,9.82
2022-11-23T12:22:35.135Z,9.77
2022-11-23T12:23:35.122Z,9.91
2022-11-23T12:24:35.278Z,9.94
2022-11-23T12:25:35.196Z,10.15
2022-11-23T12:26:35.050Z,10.07
2022-11-23T12:27:35.059Z,10.07
2022-11-23T12:28:36.350Z,10.05
2022-11-23T12:29:36.304Z,10.02
2022-11-23T12:30:35.154Z,9.92
2022-11-23T12:31:35.223Z,9.69
2022-11-23T12:32:34.991Z,9.72
2022-11-23T12:33:35.072Z,9.54
2022-11-23T12:34:35.177Z,9.44
2022-11-23T12:35:35.044Z,9.48
2022-11-23T12:36:35.031Z,9.62
2022-11-23T12:37:34.968Z,9.73
2022-11-23T12:38:34.959Z,9.91
2022-11-23T12:39:34.897Z,10.05
2022-11-23T12:40:34.983Z,9.99
2022-11-23T12:41:34.931Z,10.10
2022-11-23T12:42:34.902Z,10.13
2022-11-23T12:43:36.721Z,10.09
2022-11-23T12:44:36.311Z,10.10
2022-11-23T12:45:34.873Z,10.16
2022-11-23T12:46:34.850Z,10.33
2022-11-23T12:47:35.016Z,10.35
2022-11-23T12:48:34.975Z,10.38
2022-11-23T12:49:38.866Z,10.59
2022-11-23T12:50:35.859Z,10.60
2022-11-23T12:51:34.852Z,10.46
2022-11-23T12:52:34.838Z,10.25
2022-11-23T12:53:34.992Z,10.37
2022-11-23T12:54:35.159Z,11.00
2022-11-23T12:55:34.923Z,11.68
2022-11-23T12:56:34.728Z,12.07
2022-11-23T12:57:34.899Z,11.94
2022-11-23T12:58:34.762Z,11.54
2022-11-23T12:59:34.754Z,11.36
2022-11-23T13:00:34.920Z,11.33
2022-11-23T13:01:34.833Z,11.11
2022-11-23T13:02:34.771Z,10.82
2022-11-23T13:03:34.663Z,10.60
2022-11-23T13:04:35.383Z,10.63
2022-11-23T13:05:34.718Z,10.59
2022-11-23T13:06:54.014Z,10.84
2022-11-23T13:07:43.526Z,11.04
2022-11-23T13:08:35.762Z,11.02
2022-11-23T13:09:34.839Z,10.84
2022-11-23T13:10:34.640Z,10.69
2022-11-23T13:11:34.731Z,10.34
2022-11-23T13:12:34.611Z,10.13
2022-11-23T13:13:34.866Z,9.91
2022-11-23T13:14:35.081Z,10.01
2022-11-23T13:15:34.564Z,10.33
2022-11-23T13:16:34.753Z,10.81
2022-11-23T13:17:34.503Z,11.35
2022-11-23T13:18:34.769Z,11.80
2022-11-23T13:19:34.574Z,11.91
2022-11-23T13:20:34.717Z,12.06
2022-11-23T13:21:34.894Z,12.35
2022-11-23T13:22:34.745Z,12.22
2022-11-23T13:23:34.614Z,12.20
2022-11-23T13:24:34.886Z,12.15
2022-11-23T13:25:34.518Z,12.06
2022-11-23T13:26:34.948Z,11.87
2022-11-23T13:27:34.572Z,12.04
2022-11-23T13:28:34.536Z,12.15
2022-11-23T13:29:34.514Z,12.35
2022-11-23T13:31:36.599Z,12.57
2022-11-23T13:32:34.364Z,12.64
2022-11-23T13:33:37.307Z,12.67
2022-11-23T13:34:35.435Z,12.39
2022-11-23T13:35:34.640Z,12.39
2022-11-23T13:37:04.261Z,11.32
2022-11-23T13:37:36.404Z,11.12
2022-11-23T13:38:34.472Z,11.14
2022-11-23T13:39:34.517Z,10.89
2022-11-23T13:40:34.522Z,10.67
2022-11-23T13:41:34.499Z,10.67
2022-11-23T13:42:34.338Z,10.48
2022-11-23T13:43:34.496Z,10.46
2022-11-23T13:44:34.576Z,10.56
2022-11-23T13:45:34.418Z,10.44
2022-11-23T13:46:34.261Z,10.51
2022-11-23T13:47:34.379Z,10.61
2022-11-23T13:48:55.616Z,10.42
2022-11-23T13:49:36.208Z,10.34
2022-11-23T13:50:34.177Z,10.78
2022-11-23T13:51:34.188Z,11.22
2022-11-23T13:52:35.143Z,11.27
2022-11-23T13:53:34.121Z,11.33
2022-11-23T13:54:34.508Z,11.36
2022-11-23T13:55:34.131Z,11.19
2022-11-23T13:56:34.153Z,11.17
2022-11-23T13:57:34.101Z,11.10
2022-11-23T13:58:34.069Z,10.94
2022-11-23T13:59:34.081Z,10.81
2022-11-23T14:00:34.171Z,10.75
2022-11-23T14:01:34.164Z,10.54
2022-11-23T14:02:34.095Z,10.54
2022-11-23T14:03:34.030Z,10.41
2022-11-23T14:04:34.313Z,10.30
2022-11-23T14:05:34.021Z,10.25
2022-11-23T14:06:34.058Z,10.20
2022-11-23T14:07:34.048Z,10.20
2022-11-23T14:08:33.982Z,10.25
2022-11-23T14:09:33.992Z,10.09
2022-11-23T14:10:33.963Z,9.94
2022-11-23T14:11:33.944Z,9.94
2022-11-23T14:12:33.945Z,9.94
2022-11-23T14:13:33.928Z,9.83
2022-11-23T14:14:34.286Z,9.92
2022-11-23T14:15:33.896Z,9.72
2022-11-23T14:16:33.936Z,9.77
2022-11-23T14:17:33.883Z,9.80
2022-11-23T14:18:33.883Z,9.84
2022-11-23T14:19:33.928Z,9.80
2022-11-23T14:20:33.832Z,9.77
2022-11-23T14:21:33.892Z,9.74
2022-11-23T14:22:33.829Z,9.74
2022-11-23T14:23:34.797Z,9.76
2022-11-23T14:24:34.052Z,9.77
2022-11-23T14:25:33.802Z,9.68
2022-11-23T14:26:33.865Z,9.66
2022-11-23T14:27:49.208Z,9.61
2022-11-23T14:28:35.773Z,9.64
2022-11-23T14:29:33.754Z,9.59
2022-11-23T14:30:33.766Z,9.74
2022-11-23T14:31:33.824Z,9.76
2022-11-23T14:32:33.744Z,9.68
2022-11-23T14:33:33.748Z,9.66
2022-11-23T14:34:34.038Z,9.61
2022-11-23T14:35:33.713Z,9.55
2022-11-23T14:36:33.723Z,9.50
2022-11-23T14:37:33.662Z,9.50
2022-11-23T14:38:33.916Z,9.48
2022-11-23T14:39:34.650Z,9.43
2022-11-23T14:40:33.659Z,9.40
2022-11-23T14:41:33.655Z,9.40
2022-11-23T14:42:33.662Z,9.41
2022-11-23T14:43:33.667Z,9.41
2022-11-23T14:44:38.435Z,9.39
2022-11-23T14:45:35.654Z,9.41
2022-11-23T14:46:33.626Z,9.11
2022-11-23T14:47:33.707Z,9.14
2022-11-23T14:48:33.592Z,9.14
2022-11-23T14:49:33.776Z,8.99
2022-11-23T14:50:33.556Z,8.94
2022-11-23T14:51:33.571Z,9.04
2022-11-23T14:52:33.530Z,8.99
2022-11-23T14:53:33.552Z,8.91
2022-11-23T14:54:33.859Z,8.85
2022-11-23T14:55:33.560Z,8.92
2022-11-23T14:56:33.526Z,8.91
2022-11-23T14:57:33.489Z,8.84
2022-11-23T14:58:33.503Z,8.87
2022-11-23T14:59:33.503Z,8.71
2022-11-23T15:00:33.439Z,8.71
2022-11-23T15:01:33.502Z,8.67
2022-11-23T15:02:33.490Z,8.63
2022-11-23T15:03:50.112Z,8.61
2022-11-23T15:04:35.733Z,8.52
2022-11-23T15:05:33.433Z,8.53
2022-11-23T15:06:33.427Z,8.46
2022-11-23T15:07:33.462Z,8.42
2022-11-23T15:08:33.361Z,8.46
2022-11-23T15:09:33.378Z,8.37
2022-11-23T15:10:33.367Z,8.42
2022-11-23T15:11:33.399Z,8.37
2022-11-23T15:12:33.305Z,8.38
2022-11-23T15:13:33.314Z,8.36
2022-11-23T15:14:33.426Z,8.27
2022-11-23T15:15:33.338Z,8.28
2022-11-23T15:16:33.358Z,8.24
2022-11-23T15:17:33.257Z,8.15
2022-11-23T15:18:33.279Z,8.24
2022-11-23T15:19:33.254Z,8.13
2022-11-23T15:20:33.268Z,8.03
2022-11-23T15:21:33.249Z,8.03
2022-11-23T15:22:33.268Z,7.93
2022-11-23T15:23:33.237Z,7.88
2022-11-23T15:24:33.498Z,7.87
2022-11-23T15:25:33.179Z,7.76
2022-11-23T15:26:49.502Z,7.63
2022-11-23T15:27:35.186Z,7.54
2022-11-23T15:28:33.214Z,7.54
2022-11-23T15:29:33.782Z,7.42
2022-11-23T15:30:33.125Z,7.39
2022-11-23T15:31:33.241Z,7.42
2022-11-23T15:32:34.770Z,7.35
2022-11-23T15:33:34.134Z,7.28
2022-11-23T15:34:33.167Z,7.13
2022-11-23T15:35:33.147Z,7.06
2022-11-23T15:36:33.117Z,6.89
2022-11-23T15:37:33.105Z,6.87
2022-11-23T15:38:33.126Z,6.85
2022-11-23T15:39:33.217Z,6.93
2022-11-23T15:40:33.119Z,6.87
2022-11-23T15:41:33.077Z,6.75
2022-11-23T15:42:33.078Z,6.81
2022-11-23T15:43:33.008Z,6.70
2022-11-23T15:44:33.042Z,6.72
2022-11-23T15:45:33.108Z,6.63
2022-11-23T15:46:33.067Z,6.59
2022-11-23T15:47:32.970Z,6.63
2022-11-23T15:48:32.987Z,6.63
2022-11-23T15:49:33.131Z,6.60
2022-11-23T15:50:34.445Z,6.63
2022-11-23T15:51:34.033Z,6.69
2022-11-23T15:52:32.991Z,6.70
2022-11-23T15:53:33.744Z,6.52
2022-11-23T15:54:33.106Z,6.44
2022-11-23T15:55:32.954Z,6.41
2022-11-23T15:56:32.931Z,6.28
2022-11-23T15:57:32.916Z,6.27
2022-11-23T15:58:32.861Z,6.26
2022-11-23T15:59:32.864Z,6.20
2022-11-23T16:00:32.931Z,6.08
2022-11-23T16:01:32.955Z,5.98
2022-11-23T16:02:32.944Z,6.02
2022-11-23T16:03:32.887Z,5.87
2022-11-23T16:04:33.211Z,5.87
2022-11-23T16:05:32.860Z,5.91
2022-11-23T16:06:32.852Z,5.84